Time;durP1;ratioP1;P1;durP2;ratioP2;P2;SDS_P1;SDS_P2;PMS_P1;PMS_P2;Temp;Humidity;BMP_temperature;BMP_pressure;BME280_temperature;BME280_humidity;BME280_pressure;Samples;Min_cycle;Max_cycle;Signal;HPM_P1;HPM_P2
2022/12/27 00:01:59;;;;;;;26.20;10.38;;;;;;;7.77;80.18;102233.49;1921383;74;21069;-58
2022/12/27 00:04:27;;;;;;;21.70;8.15;;;;;;;7.78;80.11;102232.59;1921359;74;21072;-58
2022/12/27 00:06:56;;;;;;;25.35;9.38;;;;;;;7.78;80.01;102240.46;1921499;75;21029;-58
2022/12/27 00:09:25;;;;;;;21.15;8.63;;;;;;;7.73;80.05;102243.98;1921460;75;21088;-58
2022/12/27 00:11:53;;;;;;;22.02;8.80;;;;;;;7.70;79.98;102249.22;1921345;75;21493;-58
2022/12/27 00:14:22;;;;;;;28.42;9.63;;;;;;;7.67;79.83;102246.63;1921422;74;21050;-58
2022/12/27 00:16:52;;;;;;;29.52;9.43;;;;;;;7.69;79.79;102249.22;1921349;75;21050;-58
2022/12/27 00:19:21;;;;;;;27.90;10.43;;;;;;;7.62;79.85;102251.00;1921337;75;21107;-59
2022/12/27 00:21:50;;;;;;;26.35;10.20;;;;;;;7.57;79.97;102246.20;1921324;75;21093;-58
2022/12/27 00:24:18;;;;;;;24.43;9.45;;;;;;;7.56;80.03;102254.07;1921344;75;21018;-59
2022/12/27 00:26:47;;;;;;;25.85;9.53;;;;;;;7.56;79.96;102248.83;1921401;75;21041;-58
2022/12/27 00:29:16;;;;;;;26.20;10.43;;;;;;;7.52;80.00;102245.34;1921457;73;20986;-58
2022/12/27 00:31:44;;;;;;;26.90;9.00;;;;;;;7.52;80.00;102246.65;1923973;73;21050;-57
2022/12/27 00:34:13;;;;;;;29.05;10.50;;;;;;;7.51;80.04;102248.85;1927286;74;21467;-58
2022/12/27 00:36:41;;;;;;;27.98;9.90;;;;;;;7.50;79.93;102247.09;1927550;74;21027;-58
2022/12/27 00:39:11;;;;;;;22.65;9.58;;;;;;;7.53;79.89;102251.03;1927427;74;21026;-58
2022/12/27 00:41:39;;;;;;;26.25;10.00;;;;;;;7.48;80.00;102250.16;1927424;74;21027;-58
2022/12/27 00:44:08;;;;;;;32.70;11.05;;;;;;;7.45;80.05;102252.36;1927455;74;21521;-59
2022/12/27 00:46:37;;;;;;;27.75;9.80;;;;;;;7.42;80.01;102256.73;1927365;73;21083;-59
2022/12/27 00:49:05;;;;;;;35.73;12.28;;;;;;;7.37;79.97;102254.55;1927441;74;21023;-58
2022/12/27 00:51:35;;;;;;;31.27;10.18;;;;;;;7.37;79.97;102255.41;1927436;74;21422;-58
2022/12/27 00:54:04;;;;;;;38.08;13.25;;;;;;;7.32;79.93;102246.27;1927492;74;21046;-58
2022/12/27 00:56:34;;;;;;;38.73;13.93;;;;;;;7.30;79.83;102245.40;1927564;74;21096;-57
2022/12/27 00:59:04;;;;;;;34.48;12.80;;;;;;;7.28;79.84;102239.26;1927349;74;21030;-59
2022/12/27 01:01:37;;;;;;;35.83;12.15;;;;;;;7.25;79.87;102243.21;1927368;74;21082;-58
2022/12/27 01:04:06;;;;;;;32.75;11.05;;;;;;;7.26;79.85;102240.15;1927540;74;21097;-58
2022/12/27 01:06:35;;;;;;;31.33;11.33;;;;;;;7.22;79.70;102244.52;1927274;74;20999;-58
2022/12/27 01:09:05;;;;;;;41.13;13.40;;;;;;;7.21;79.58;102246.72;1926948;74;21454;-58
2022/12/27 01:11:34;;;;;;;40.52;13.55;;;;;;;7.20;79.56;102248.03;1930498;73;21447;-59
2022/12/27 01:14:05;;;;;;;41.88;14.15;;;;;;;7.18;79.50;102243.23;1893749;76;21523;-60
2022/12/27 01:16:34;;;;;;;37.20;12.00;;;;;;;7.16;79.44;102244.53;1900692;75;21578;-59
2022/12/27 01:19:02;;;;;;;40.60;12.95;;;;;;;7.15;79.34;102241.02;1926731;74;21087;-58
2022/12/27 01:21:32;;;;;;;35.83;12.93;;;;;;;7.18;79.28;102244.09;1912874;75;21023;-56
2022/12/27 01:24:00;;;;;;;43.35;12.80;;;;;;;7.20;79.17;102240.16;1901627;75;21556;-60
2022/12/27 01:26:29;;;;;;;42.60;13.48;;;;;;;7.20;79.02;102242.34;1917592;73;21078;-59
2022/12/27 01:28:58;;;;;;;36.95;15.03;;;;;;;7.19;78.92;102245.81;1924472;73;21085;-58
2022/12/27 01:31:28;;;;;;;39.95;13.18;;;;;;;7.20;78.95;102251.51;1921037;73;21015;-58
2022/12/27 01:33:58;;;;;;;38.88;12.13;;;;;;;7.18;79.00;102253.26;1920247;75;21087;-57
2022/12/27 01:36:29;;;;;;;31.35;10.53;;;;;;;7.20;78.92;102251.51;1925358;73;21011;-58
2022/12/27 01:38:58;;;;;;;47.85;14.07;;;;;;;7.22;78.85;102251.52;1920471;75;21505;-58
2022/12/27 01:44:59;;;;;;;41.23;12.33;;;;;;;7.20;78.83;102256.75;1914130;73;20999;-59
2022/12/27 01:47:22;;;;;;;33.60;13.48;;;;;;;7.18;78.79;102254.57;1891250;75;21041;-58
2022/12/27 01:50:06;;;;;;;41.10;13.72;;;;;;;7.19;78.70;102248.44;1916298;73;21058;-54
2022/12/27 01:52:50;;;;;;;34.90;10.90;;;;;;;7.19;78.49;102244.51;1919222;75;21039;-56
2022/12/27 01:55:51;;;;;;;36.75;12.13;;;;;;;7.18;78.27;102244.09;1920119;74;21104;-62
2022/12/27 01:58:43;;;;;;;38.88;12.63;;;;;;;7.11;78.15;102239.28;1895927;75;21063;-59
2022/12/27 02:01:14;;;;;;;39.33;13.65;;;;;;;7.03;78.13;102234.94;1904163;75;21035;-60
2022/12/27 02:04:01;;;;;;;38.02;12.70;;;;;;;7.02;78.19;102223.57;1903936;75;21498;-62
2022/12/27 02:06:32;;;;;;;37.65;12.33;;;;;;;7.05;78.25;102220.96;1904309;75;21149;-62
2022/12/27 02:09:03;;;;;;;34.18;11.97;;;;;;;7.05;78.24;102223.58;1904220;75;21031;-59
2022/12/27 02:11:54;;;;;;;43.85;12.73;;;;;;;7.06;78.25;102224.44;1903966;75;21014;-61
2022/12/27 02:14:40;;;;;;;37.20;13.93;;;;;;;7.08;78.16;102233.17;1910821;75;21143;-58
2022/12/27 02:17:20;;;;;;;36.63;12.03;;;;;;;7.10;78.16;102235.34;1920304;75;21036;-59
2022/12/27 02:19:57;;;;;;;31.48;11.97;;;;;;;7.12;78.12;102234.94;1919945;75;21048;-59
2022/12/27 02:25:39;;;;;;;34.40;12.88;;;;;;;7.12;77.98;102231.01;1920278;75;21028;-60
2022/12/27 02:28:27;;;;;;;32.00;12.75;;;;;;;7.11;78.01;102236.66;1920379;75;21056;-59
2022/12/27 02:30:59;;;;;;;34.38;13.05;;;;;;;7.08;78.20;102231.45;1920300;75;21525;-59
2022/12/27 02:33:30;;;;;;;32.67;12.43;;;;;;;7.09;78.08;102234.93;1913040;74;21076;-58
2022/12/27 02:36:02;;;;;;;35.08;12.30;;;;;;;7.06;77.99;102227.92;1910976;75;21084;-57
2022/12/27 02:38:54;;;;;;;33.38;11.48;;;;;;;7.05;77.99;102237.13;1911006;75;21065;-56
2022/12/27 02:55:31;;;;;;;29.52;9.98;;;;;;;6.84;78.15;102244.11;1872501;77;21093;-57
2022/12/27 02:58:20;;;;;;;31.23;11.22;;;;;;;6.81;78.14;102254.57;1872365;77;21016;-59
2022/12/27 03:03:47;;;;;;;31.90;10.65;;;;;;;6.76;77.98;102258.47;1866095;77;21057;-59
2022/12/27 03:06:40;;;;;;;33.45;11.40;;;;;;;6.73;78.00;102256.28;1865922;76;21124;-59
2022/12/27 03:18:35;;;;;;;33.92;10.45;;;;;;;6.54;78.17;102251.02;1854933;77;21035;-57
2022/12/27 03:26:45;;;;;;;35.43;12.82;;;;;;;6.50;78.38;102247.11;1872429;76;21517;-58
2022/12/27 03:34:56;;;;;;;37.53;11.93;;;;;;;6.60;78.11;102258.45;1831455;78;21050;-59
2022/12/27 03:40:26;;;;;;;28.57;9.98;;;;;;;6.59;78.03;102260.66;1824688;78;21600;-60
2022/12/27 03:43:12;;;;;;;43.28;13.30;;;;;;;6.53;78.14;102258.45;1849608;77;21071;-60
2022/12/27 03:48:57;;;;;;;36.60;11.55;;;;;;;6.40;78.54;102258.41;1850917;77;21078;-58
2022/12/27 03:51:29;;;;;;;36.48;10.82;;;;;;;6.36;78.62;102247.95;1849095;77;21189;-58
2022/12/27 03:54:04;;;;;;;31.57;10.68;;;;;;;6.39;78.49;102251.00;1843998;78;21573;-62
2022/12/27 03:56:33;;;;;;;35.30;12.05;;;;;;;6.38;78.45;102247.93;1843752;77;21191;-62
2022/12/27 03:59:03;;;;;;;37.53;11.95;;;;;;;6.38;78.54;102253.16;1844033;78;21142;-63
2022/12/27 04:01:32;;;;;;;37.10;12.13;;;;;;;6.40;78.55;102251.45;1844050;78;21427;-63
2022/12/27 04:04:00;;;;;;;36.00;10.35;;;;;;;6.42;78.42;102248.41;1815922;77;21078;-63
2022/12/27 04:06:29;;;;;;;37.65;11.60;;;;;;;6.41;78.37;102253.63;1813597;79;21140;-63
2022/12/27 04:36:45;;;;;;;196.37;132.43;;;;;;;6.41;78.40;102260.17;1818654;79;21051;-61
2022/12/27 04:39:14;;;;;;;41.65;13.25;;;;;;;6.37;78.55;102265.83;1818731;79;21031;-60
2022/12/27 04:55:41;;;;;;;30.82;9.80;;;;;;;6.27;78.73;102265.34;1866383;77;21488;-61
2022/12/27 04:58:09;;;;;;;23.98;8.58;;;;;;;6.18;79.02;102271.00;1866349;77;21058;-60
2022/12/27 05:03:25;;;;;;;24.87;8.70;;;;;;;6.03;79.46;102272.25;1863103;77;21046;-59
2022/12/27 05:05:54;;;;;;;30.70;10.00;;;;;;;6.05;79.41;102277.47;1862161;77;21031;-60
2022/12/27 05:14:00;;;;;;;30.72;9.15;;;;;;;6.12;79.37;102281.45;1842708;77;21100;-60
2022/12/27 05:16:37;;;;;;;35.95;10.50;;;;;;;6.12;79.37;102293.22;1833731;78;21142;-60
2022/12/27 05:19:26;;;;;;;32.30;10.72;;;;;;;6.09;79.54;102285.34;1833766;78;21148;-60
2022/12/27 05:27:28;;;;;;;31.57;10.23;;;;;;;6.21;79.22;102280.58;1899483;75;21101;-60
2022/12/27 05:29:57;;;;;;;31.62;10.05;;;;;;;6.23;79.27;102275.36;1899477;75;21474;-60
2022/12/27 05:32:26;;;;;;;27.62;9.48;;;;;;;6.22;79.40;102273.63;1865545;77;21138;-60
2022/12/27 05:34:54;;;;;;;30.05;9.58;;;;;;;6.28;79.32;102274.95;1903194;75;21033;-60
2022/12/27 05:37:23;;;;;;;27.67;9.78;;;;;;;6.32;79.18;102279.31;1899478;75;21144;-60
2022/12/27 05:39:52;;;;;;;29.35;9.93;;;;;;;6.37;79.12;102276.29;1899441;75;21505;-60
2022/12/27 05:42:21;;;;;;;24.25;9.05;;;;;;;6.42;79.03;102268.03;1866988;75;21074;-60
2022/12/27 05:44:50;;;;;;;25.85;9.08;;;;;;;6.41;79.13;102276.73;1827949;78;21062;-60
2022/12/27 05:47:18;;;;;;;22.42;8.13;;;;;;;6.42;79.28;102284.14;1860537;77;21614;-60
2022/12/27 05:49:47;;;;;;;28.57;10.98;;;;;;;6.41;79.42;102288.95;1828116;78;21094;-60
2022/12/27 05:52:16;;;;;;;26.62;9.10;;;;;;;6.39;79.56;102286.32;1827971;78;21086;-59
2022/12/27 05:54:45;;;;;;;27.87;8.68;;;;;;;6.40;79.63;102284.57;1860510;77;21062;-59
2022/12/27 05:57:13;;;;;;;30.62;9.85;;;;;;;6.43;79.53;102282.84;1827994;78;21058;-60
2022/12/27 05:59:42;;;;;;;27.52;10.20;;;;;;;6.47;79.58;102281.11;1860541;77;21086;-59
2022/12/27 06:02:10;;;;;;;29.10;10.28;;;;;;;6.52;79.39;102281.55;1862776;77;21219;-59
2022/12/27 06:04:39;;;;;;;33.50;9.73;;;;;;;6.59;79.18;102284.20;1882989;76;21164;-59
2022/12/27 06:07:10;;;;;;;32.05;9.45;;;;;;;6.59;79.16;102277.66;1883134;76;21047;-60
2022/12/27 06:09:39;;;;;;;35.15;9.20;;;;;;;6.57;79.15;102279.83;1883033;76;21122;-60
2022/12/27 06:12:08;;;;;;;26.55;8.50;;;;;;;6.57;79.21;102282.45;1883916;75;21154;-59
2022/12/27 06:14:36;;;;;;;30.43;9.03;;;;;;;6.60;79.14;102276.77;1874290;76;21076;-59
2022/12/27 06:17:05;;;;;;;23.38;7.70;;;;;;;6.63;79.06;102270.25;1874242;76;21071;-59
2022/12/27 06:22:23;;;;;;;27.35;8.80;;;;;;;6.73;78.78;102271.99;1838587;78;21647;-61
2022/12/27 06:24:52;;;;;;;26.85;8.23;;;;;;;6.75;78.50;102279.00;1807167;79;21136;-58
2022/12/27 06:27:22;;;;;;;31.17;9.08;;;;;;;6.76;78.33;102274.63;1807821;79;21090;-59
2022/12/27 06:29:50;;;;;;;29.80;9.38;;;;;;;6.75;78.24;102272.45;1807658;79;21066;-59
2022/12/27 06:32:20;;;;;;;31.95;10.40;;;;;;;6.77;78.08;102272.46;1807639;79;21584;-61
2022/12/27 06:39:10;;;;;;;33.63;9.50;;;;;;;6.76;78.17;102268.95;1822342;79;21057;-59
2022/12/27 06:41:39;;;;;;;32.93;9.60;;;;;;;6.78;78.09;102270.27;1820181;78;21136;-61
2022/12/27 06:44:08;;;;;;;29.23;9.23;;;;;;;6.73;78.24;102262.83;1822217;79;21042;-63
2022/12/27 06:46:37;;;;;;;39.27;10.60;;;;;;;6.71;78.42;102268.09;1822237;79;21167;-63
2022/12/27 06:49:05;;;;;;;34.70;9.83;;;;;;;6.77;78.43;102269.84;1822211;79;21140;-64
2022/12/27 06:51:34;;;;;;;33.23;10.65;;;;;;;6.73;78.50;102266.75;1817723;79;21097;-63
2022/12/27 06:54:03;;;;;;;29.67;10.03;;;;;;;6.67;78.71;102264.14;1812724;79;21054;-63
2022/12/27 06:56:32;;;;;;;32.05;10.20;;;;;;;6.64;78.81;102265.44;1812749;79;21081;-63
2022/12/27 06:59:00;;;;;;;29.87;8.48;;;;;;;6.72;78.72;102267.65;1812732;79;21081;-63
2022/12/27 07:01:29;;;;;;;36.73;11.00;;;;;;;6.75;78.43;102265.91;1815104;79;21074;-63
2022/12/27 07:03:59;;;;;;;30.20;9.58;;;;;;;6.79;78.21;102259.34;1822088;79;21058;-64
2022/12/27 07:06:30;;;;;;;30.80;11.65;;;;;;;6.78;78.03;102248.01;1822274;79;21062;-63
2022/12/27 07:09:00;;;;;;;33.65;9.55;;;;;;;6.74;78.00;102260.66;1822183;79;21453;-64
2022/12/27 07:11:30;;;;;;;37.42;10.88;;;;;;;6.66;78.25;102259.77;1821183;79;21128;-61
2022/12/27 07:13:59;;;;;;;49.50;12.78;;;;;;;6.64;78.40;102253.24;1812724;79;21128;-62
2022/12/27 07:16:29;;;;;;;36.35;10.32;;;;;;;6.70;78.41;102255.00;1812642;79;21164;-62
2022/12/27 07:18:59;;;;;;;31.30;11.18;;;;;;;6.60;78.51;102252.77;1812735;79;21584;-62
2022/12/27 07:21:29;;;;;;;18.95;7.03;;;;;;;6.55;78.69;102253.23;1813399;79;21129;-60
2022/12/27 07:23:58;;;;;;;29.55;11.38;;;;;;;6.56;78.69;102247.97;1814863;79;21227;-60
2022/12/27 07:26:29;;;;;;;33.38;11.12;;;;;;;6.55;78.63;102241.01;1815858;79;21592;-61
2022/12/27 07:29:00;;;;;;;39.58;11.38;;;;;;;6.54;78.72;102244.48;1815776;79;21066;-63
2022/12/27 07:31:32;;;;;;;50.05;12.43;;;;;;;6.56;78.97;102242.73;1815989;79;21058;-63
2022/12/27 07:34:03;;;;;;;33.18;10.78;;;;;;;6.52;79.05;102246.22;1806663;79;21059;-63
2022/12/27 07:36:37;;;;;;;43.38;12.98;;;;;;;6.52;79.15;102243.61;1807172;79;21047;-63
2022/12/27 07:39:07;;;;;;;35.40;9.73;;;;;;;6.60;79.06;102253.22;1806417;79;21133;-63
2022/12/27 07:41:36;;;;;;;42.73;12.33;;;;;;;6.63;79.21;102253.23;1795311;79;21502;-63
2022/12/27 07:44:05;;;;;;;38.45;12.00;;;;;;;6.75;79.17;102243.66;1778093;79;21482;-62
2022/12/27 07:46:34;;;;;;;31.10;11.20;;;;;;;6.90;78.91;102240.17;1778063;81;21027;-62
2022/12/27 07:49:03;;;;;;;41.28;13.35;;;;;;;6.99;78.68;102241.92;1778091;81;21055;-61
2022/12/27 07:51:31;;;;;;;37.25;11.30;;;;;;;7.00;78.72;102245.41;1784455;79;21074;-60
2022/12/27 07:54:00;;;;;;;48.60;13.53;;;;;;;7.20;78.69;102240.16;1806944;79;21043;-62
2022/12/27 07:56:30;;;;;;;38.35;12.43;;;;;;;7.37;78.43;102240.14;1807230;79;21556;-60
2022/12/27 07:59:00;;;;;;;39.83;11.30;;;;;;;7.59;78.23;102240.52;1807056;79;21486;-61
2022/12/27 08:02:02;;;;;;;45.03;13.35;;;;;;;7.81;77.96;102233.91;1804647;78;21048;-60
2022/12/27 08:04:02;;;;;;;37.05;10.08;;;;;;;8.17;77.60;102229.36;1804117;78;21055;-60
2022/12/27 08:06:34;;;;;;;37.20;10.28;;;;;;;8.52;76.74;102230.95;1800172;80;21132;-62
2022/12/27 08:09:05;;;;;;;37.17;12.28;;;;;;;8.82;75.85;102225.48;1796894;80;21058;-62
2022/12/27 08:11:36;;;;;;;40.92;11.08;;;;;;;9.81;74.18;102212.64;1790574;80;21529;-62
2022/12/27 08:14:23;;;;;;;42.15;12.88;;;;;;;10.63;72.89;102207.16;1857250;77;21613;-61
2022/12/27 08:16:52;;;;;;;37.45;12.45;;;;;;;11.45;71.82;102201.31;1857210;77;21042;-62
2022/12/27 08:19:21;;;;;;;36.85;11.18;;;;;;;11.98;71.06;102192.77;1856615;77;21159;-60
2022/12/27 08:21:50;;;;;;;36.68;10.35;;;;;;;13.53;68.47;102180.59;1906682;74;21627;-60
2022/12/27 08:24:19;;;;;;;32.28;11.40;;;;;;;14.99;65.24;102180.00;1939340;74;21160;-60
2022/12/27 08:26:47;;;;;;;33.20;11.10;;;;;;;15.46;64.59;102177.06;1939366;74;21003;-61
2022/12/27 08:29:16;;;;;;;32.23;9.75;;;;;;;16.10;63.53;102181.72;1939361;74;21063;-62
2022/12/27 08:31:45;;;;;;;34.18;11.70;;;;;;;16.03;63.86;102174.48;1908686;74;21551;-62
2022/12/27 08:34:14;;;;;;;30.65;9.28;;;;;;;16.30;62.96;102167.64;1846234;78;21495;-62
2022/12/27 08:36:42;;;;;;;29.72;10.60;;;;;;;17.14;61.34;102161.46;1879340;76;21017;-62
2022/12/27 08:39:11;;;;;;;29.37;10.20;;;;;;;17.06;60.72;102151.64;1846277;78;21177;-62
2022/12/27 08:41:40;;;;;;;36.23;9.80;;;;;;;16.58;61.28;102149.64;1897248;74;21030;-61
2022/12/27 08:44:09;;;;;;;33.10;10.18;;;;;;;15.72;63.13;102142.42;1899535;75;21090;-61
2022/12/27 08:46:38;;;;;;;38.55;10.63;;;;;;;15.08;63.93;102136.84;1853071;77;21509;-61
2022/12/27 08:49:07;;;;;;;29.85;10.10;;;;;;;14.54;64.93;102128.92;1826324;78;21140;-60
2022/12/27 08:51:36;;;;;;;30.90;9.85;;;;;;;13.85;65.55;102125.39;1867863;77;21563;-60
2022/12/27 08:54:05;;;;;;;36.20;11.97;;;;;;;13.14;66.24;102118.60;1873547;76;21108;-60
2022/12/27 08:56:34;;;;;;;33.42;11.20;;;;;;;12.60;66.91;102120.04;1895786;75;21101;-62
2022/12/27 08:59:03;;;;;;;32.45;11.03;;;;;;;12.13;67.38;102115.00;1908018;74;21027;-60
2022/12/27 09:01:32;;;;;;;32.95;10.35;;;;;;;11.74;68.05;102114.11;1933167;74;21132;-61
2022/12/27 09:04:00;;;;;;;35.73;11.73;;;;;;;11.47;68.47;102109.86;1884437;74;21048;-62
2022/12/27 09:06:29;;;;;;;38.67;10.88;;;;;;;11.25;68.89;102109.86;1879336;76;21025;-63
2022/12/27 09:09:00;;;;;;;34.00;11.10;;;;;;;11.06;69.06;102106.27;1879340;76;21053;-61
2022/12/27 09:11:32;;;;;;;35.25;10.60;;;;;;;10.99;69.33;102100.69;1883767;74;21237;-62
2022/12/27 09:14:03;;;;;;;36.33;11.75;;;;;;;11.00;69.47;102095.84;1858710;77;21078;-61
2022/12/27 09:16:33;;;;;;;29.45;10.75;;;;;;;11.07;69.54;102096.16;1867716;77;21057;-62
2022/12/27 09:19:03;;;;;;;35.73;10.78;;;;;;;11.11;69.48;102092.55;1826370;78;21565;-61
2022/12/27 09:21:33;;;;;;;26.97;9.08;;;;;;;11.15;69.42;102088.09;1846046;76;21536;-65
2022/12/27 09:24:02;;;;;;;32.13;10.80;;;;;;;11.15;69.52;102075.77;1900027;75;21110;-64
2022/12/27 09:26:31;;;;;;;27.32;9.03;;;;;;;11.15;69.64;102078.41;1863562;77;21034;-63
2022/12/27 09:29:00;;;;;;;31.60;10.38;;;;;;;11.14;69.76;102074.05;1905727;75;21055;-63
2022/12/27 09:31:29;;;;;;;32.03;9.75;;;;;;;11.15;69.78;102070.49;1905720;75;21049;-63
2022/12/27 09:33:59;;;;;;;50.80;14.90;;;;;;;11.16;69.74;102063.02;1905695;75;21130;-61
2022/12/27 09:36:29;;;;;;;40.43;11.28;;;;;;;11.12;69.70;102055.19;1903929;74;21438;-63
2022/12/27 09:38:59;;;;;;;47.62;13.20;;;;;;;11.02;69.73;102046.61;1906623;73;21088;-62
2022/12/27 09:41:47;;;;;;;22.22;8.30;;;;;;;10.94;69.86;102044.59;1901138;74;21422;-62
2022/12/27 09:44:19;;;;;;;10.43;3.77;;;;;;;10.81;70.04;102030.32;1891412;75;21430;-65
2022/12/27 09:46:59;;;;;;;9.40;3.87;;;;;;;10.77;70.07;102024.70;1903546;74;21650;-62
2022/12/27 09:49:39;;;;;;;8.80;3.75;;;;;;;10.71;69.72;102026.11;1850184;75;21086;-61
2022/12/27 09:52:13;;;;;;;6.60;3.22;;;;;;;10.66;69.57;102020.09;1889720;75;21561;-61
2022/12/27 09:55:00;;;;;;;6.55;3.33;;;;;;;10.67;69.59;102014.36;1889907;76;21662;-61
2022/12/27 09:57:34;;;;;;;9.38;3.60;;;;;;;10.64;69.08;102015.27;1899685;74;21564;-61
2022/12/27 10:00:06;;;;;;;6.85;4.12;;;;;;;10.64;69.18;102010.00;1900140;75;21140;-61
2022/12/27 10:02:35;;;;;;;7.90;3.77;;;;;;;10.74;69.30;102016.84;1900426;74;21104;-58
2022/12/27 10:05:04;;;;;;;6.47;3.55;;;;;;;10.85;69.39;102014.47;1887722;75;21055;-64
2022/12/27 10:07:48;;;;;;;8.93;3.87;;;;;;;11.00;69.36;102018.09;1887940;75;21092;-63
2022/12/27 10:10:25;;;;;;;7.15;3.35;;;;;;;11.16;69.12;102019.98;1849851;75;21113;-62
2022/12/27 10:13:18;;;;;;;13.00;4.15;;;;;;;11.43;68.61;102009.27;1899495;75;21043;-62
2022/12/27 10:15:59;;;;;;;9.73;4.22;;;;;;;11.61;67.78;102004.48;1899698;75;21043;-62
2022/12/27 10:18:46;;;;;;;8.75;3.33;;;;;;;11.98;67.11;102002.72;1898855;75;21039;-62
2022/12/27 10:21:26;;;;;;;12.20;4.55;;;;;;;12.27;65.79;102000.27;1909550;74;21497;-62
2022/12/27 10:24:01;;;;;;;8.38;3.10;;;;;;;12.20;65.46;101988.98;1916193;74;21458;-62
2022/12/27 10:26:29;;;;;;;8.35;3.90;;;;;;;11.84;65.06;101991.62;1898797;75;21082;-62
2022/12/27 10:29:04;;;;;;;7.40;3.52;;;;;;;11.58;65.52;101991.79;1885741;75;21113;-62
2022/12/27 10:31:34;;;;;;;5.97;2.30;;;;;;;11.35;65.78;101994.94;1898989;75;21035;-62
2022/12/27 10:34:03;;;;;;;8.20;2.60;;;;;;;11.27;66.34;101994.67;1893732;75;21003;-62
2022/12/27 10:36:32;;;;;;;11.48;3.70;;;;;;;11.22;66.67;101988.66;1899902;75;21078;-53
2022/12/27 10:39:04;;;;;;;8.78;3.12;;;;;;;11.12;66.70;101988.86;1903126;75;21099;-53
2022/12/27 10:41:53;;;;;;;8.85;2.98;;;;;;;11.00;66.66;101986.47;1919078;75;21042;-53
2022/12/27 10:44:23;;;;;;;7.50;3.10;;;;;;;11.00;66.86;101979.88;1919178;75;21104;-55
2022/12/27 10:46:55;;;;;;;6.83;2.92;;;;;;;11.03;66.96;101983.78;1898832;74;21036;-55
2022/12/27 10:49:27;;;;;;;6.53;2.37;;;;;;;11.00;66.83;101968.88;1865843;75;21058;-60
2022/12/27 10:52:01;;;;;;;10.20;3.52;;;;;;;10.93;66.66;101965.09;1847185;78;21047;-61
2022/12/27 10:54:30;;;;;;;6.37;2.55;;;;;;;10.86;66.74;101964.80;1860134;74;21046;-59
2022/12/27 10:57:02;;;;;;;6.33;2.55;;;;;;;10.76;66.68;101958.41;1894865;75;21654;-60
2022/12/27 10:59:30;;;;;;;5.78;2.40;;;;;;;10.66;66.71;101956.88;1881023;75;21011;-59
2022/12/27 11:02:05;;;;;;;7.83;3.00;;;;;;;10.57;67.13;101948.69;1900011;75;21086;-60
2022/12/27 11:04:33;;;;;;;6.10;2.08;;;;;;;10.55;67.21;101950.92;1899222;75;21055;-60
2022/12/27 11:07:05;;;;;;;7.28;2.45;;;;;;;10.50;67.24;101950.17;1885207;74;21607;-57
2022/12/27 11:09:40;;;;;;;4.92;2.25;;;;;;;10.49;67.35;101944.47;1900124;75;21105;-55
2022/12/27 11:12:20;;;;;;;5.90;2.00;;;;;;;10.52;67.42;101944.42;1900047;75;21031;-55
2022/12/27 11:15:08;;;;;;;8.65;2.85;;;;;;;10.46;67.14;101941.87;1901177;74;21098;-52
2022/12/27 11:17:40;;;;;;;8.43;3.40;;;;;;;10.46;67.46;101935.30;1880659;76;21039;-53
2022/12/27 11:20:27;;;;;;;8.85;3.02;;;;;;;10.47;67.46;101932.64;1889864;76;21086;-57
2022/12/27 11:23:07;;;;;;;5.92;2.45;;;;;;;10.50;67.48;101935.69;1900222;75;21475;-56
2022/12/27 11:25:37;;;;;;;7.95;2.37;;;;;;;10.50;67.35;101935.69;1900141;75;21458;-57
2022/12/27 11:28:24;;;;;;;13.65;3.37;;;;;;;10.43;67.17;101931.83;1900490;75;21184;-53
2022/12/27 11:31:02;;;;;;;7.37;2.35;;;;;;;10.35;67.13;101935.08;1899647;75;21502;-54
2022/12/27 11:33:38;;;;;;;8.68;2.80;;;;;;;10.31;67.08;101933.41;1900108;75;21459;-54
2022/12/27 11:36:09;;;;;;;8.35;2.67;;;;;;;10.30;67.19;101926.35;1900132;75;21035;-52
2022/12/27 11:38:41;;;;;;;5.65;3.05;;;;;;;10.37;66.96;101925.37;1925829;74;21527;-53
2022/12/27 11:41:13;;;;;;;4.65;2.58;;;;;;;10.53;66.77;101927.70;1928123;74;21512;-52
2022/12/27 11:44:05;;;;;;;2.77;1.52;;;;;;;10.73;66.21;101914.98;1918501;74;21096;-52
2022/12/27 11:47:07;;;;;;;3.70;1.32;;;;;;;10.82;65.64;101904.25;1899062;74;21054;-53
2022/12/27 11:49:38;;;;;;;4.00;1.32;;;;;;;10.78;65.44;101907.86;1899725;75;21039;-53
2022/12/27 11:52:35;;;;;;;3.77;1.52;;;;;;;10.77;64.96;101906.57;1900113;75;21597;-53
2022/12/27 11:55:23;;;;;;;3.12;1.30;;;;;;;10.90;64.35;101898.84;1900126;75;21039;-53
2022/12/27 11:58:19;;;;;;;3.83;2.58;;;;;;;10.92;64.29;101900.10;1890705;75;21098;-53
2022/12/27 12:00:53;;;;;;;4.50;1.70;;;;;;;10.80;64.13;101898.16;1899279;75;21497;-51
2022/12/27 12:03:43;;;;;;;3.30;1.75;;;;;;;10.78;64.43;101896.47;1886367;75;21039;-55
2022/12/27 12:06:38;;;;;;;7.35;2.67;;;;;;;10.73;64.17;101906.22;1862062;75;21474;-54
2022/12/27 12:09:28;;;;;;;3.87;2.08;;;;;;;10.65;64.04;101898.48;1843067;78;21628;-53
2022/12/27 12:12:00;;;;;;;4.28;1.85;;;;;;;10.59;63.03;101899.94;1842655;78;21573;-53
2022/12/27 12:14:34;;;;;;;3.17;1.52;;;;;;;10.53;63.26;101901.36;1872518;75;21047;-54
2022/12/27 12:17:21;;;;;;;2.30;1.82;;;;;;;10.53;63.60;101897.41;1904244;75;21128;-53
2022/12/27 12:20:05;;;;;;;3.72;1.62;;;;;;;10.51;63.49;101896.16;1906752;75;21160;-52
2022/12/27 12:22:52;;;;;;;;;;;;;;;10.46;63.30;101895.80;1908314;75;21035;-53
2022/12/27 12:25:39;;;;;;;2.50;1.32;;;;;;;10.39;62.95;101884.55;1906343;75;20421;-53
2022/12/27 12:28:34;;;;;;;4.70;1.82;;;;;;;10.34;63.00;101893.83;1906871;75;21058;-53
2022/12/27 12:31:22;;;;;;;3.42;1.30;;;;;;;10.33;62.49;101878.95;1906706;75;21096;-53
2022/12/27 12:34:12;;;;;;;4.60;1.62;;;;;;;10.33;62.53;101892.11;1906606;75;21537;-49
2022/12/27 12:36:59;;;;;;;4.50;1.42;;;;;;;10.28;62.33;101894.39;1906699;75;21003;-54
2022/12/27 12:39:39;;;;;;;2.98;0.80;;;;;;;10.27;62.70;101897.45;1905809;75;21415;-50
2022/12/27 12:42:32;;;;;;;1.75;1.00;;;;;;;10.20;62.62;101905.06;1905345;75;21533;-52
2022/12/27 12:45:06;;;;;;;6.37;1.55;;;;;;;10.16;62.95;101889.78;1906710;75;21078;-54
2022/12/27 12:48:11;;;;;;;3.30;1.60;;;;;;;10.17;63.32;101890.64;1904993;75;21067;-52
2022/12/27 12:50:52;;;;;;;6.72;2.17;;;;;;;10.15;63.58;101898.56;1906811;75;21144;-53
2022/12/27 12:53:52;;;;;;;7.72;2.02;;;;;;;10.13;63.79;101882.39;1905396;75;21497;-53
2022/12/27 12:56:55;;;;;;;5.00;2.80;;;;;;;10.09;63.95;101876.73;1906516;75;21203;-53
2022/12/27 12:59:44;;;;;;;2.90;1.50;;;;;;;10.02;63.92;101875.55;1906942;75;21402;-52
2022/12/27 13:02:36;;;;;;;6.30;1.90;;;;;;;9.96;64.02;101880.94;1906168;75;21482;-53
2022/12/27 13:05:38;;;;;;;2.27;0.98;;;;;;;9.95;64.20;101868.66;1906640;75;21035;-53
2022/12/27 13:08:12;;;;;;;5.10;2.12;;;;;;;9.95;64.09;101874.37;1906747;75;21039;-54
2022/12/27 13:10:44;;;;;;;5.65;1.67;;;;;;;9.94;64.19;101873.52;1906636;75;21074;-53
2022/12/27 13:13:24;;;;;;;7.72;2.47;;;;;;;9.90;64.29;101863.92;1906451;75;21079;-53
2022/12/27 13:16:10;;;;;;;3.27;1.45;;;;;;;9.91;64.46;101876.66;1910125;75;21078;-53
2022/12/27 13:18:51;;;;;;;2.67;1.45;;;;;;;9.89;64.48;101866.61;1919341;75;21034;-53
2022/12/27 13:21:28;;;;;;;7.78;2.10;;;;;;;9.90;64.60;101868.33;1919293;75;21171;-51
2022/12/27 13:24:22;;;;;;;6.65;2.08;;;;;;;9.90;64.61;101865.70;1905203;75;21116;-53
2022/12/27 13:26:54;;;;;;;8.65;2.10;;;;;;;9.88;64.71;101868.35;1919349;75;21221;-53
2022/12/27 13:29:40;;;;;;;5.45;1.90;;;;;;;9.85;64.92;101866.66;1919017;75;21046;-51
2022/12/27 13:32:15;;;;;;;6.05;2.05;;;;;;;9.82;65.10;101855.31;1901492;75;21536;-50
2022/12/27 13:34:46;;;;;;;4.08;1.77;;;;;;;9.80;65.27;101862.38;1919381;75;21011;-49
2022/12/27 13:37:26;;;;;;;4.75;1.80;;;;;;;9.78;65.44;101861.54;1919417;75;21002;-50
2022/12/27 13:40:01;;;;;;;4.20;1.50;;;;;;;9.76;65.56;101864.65;1918730;75;21058;-50
2022/12/27 13:42:41;;;;;;;4.50;1.77;;;;;;;9.76;65.72;101869.91;1918581;75;21089;-52
2022/12/27 13:45:42;;;;;;;7.05;2.10;;;;;;;9.73;65.91;101870.81;1918960;74;21613;-49
2022/12/27 13:48:16;;;;;;;4.72;1.55;;;;;;;9.74;65.95;101865.98;1917735;75;21062;-50